sensor_id;sensor_type;location;lat;lon;timestamp;temperature;humidity
39779;DHT22;25454;49.878;8.618;2022-09-25T00:04:16;13.80;99.90
39779;DHT22;25454;49.878;8.618;2022-09-25T00:09:16;13.80;99.90
39779;DHT22;25454;49.878;8.618;2022-09-25T00:14:20;13.80;99.90
39779;DHT22;25454;49.878;8.618;2022-09-25T00:19:21;13.80;99.90
39779;DHT22;25454;49.878;8.618;2022-09-25T00:24:40;13.80;99.90
39779;DHT22;25454;49.878;8.618;2022-09-25T00:29:41;13.90;99.90
39779;DHT22;25454;49.878;8.618;2022-09-25T00:34:41;13.90;99.90
39779;DHT22;25454;49.878;8.618;2022-09-25T00:39:42;13.90;99.90
39779;DHT22;25454;49.878;8.618;2022-09-25T00:49:57;13.90;99.90
39779;DHT22;25454;49.878;8.618;2022-09-25T00:55:02;13.80;99.90
39779;DHT22;25454;49.878;8.618;2022-09-25T01:00:09;13.70;99.90
39779;DHT22;25454;49.878;8.618;2022-09-25T01:05:18;13.70;99.90
39779;DHT22;25454;49.878;8.618;2022-09-25T01:10:20;13.70;99.90
39779;DHT22;25454;49.878;8.618;2022-09-25T01:32:04;13.80;99.90
39779;DHT22;25454;49.878;8.618;2022-09-25T01:42:29;13.70;99.90
39779;DHT22;25454;49.878;8.618;2022-09-25T01:47:35;13.70;99.90
39779;DHT22;25454;49.878;8.618;2022-09-25T01:52:52;13.70;99.90
39779;DHT22;25454;49.878;8.618;2022-09-25T01:58:23;13.70;99.90
39779;DHT22;25454;49.878;8.618;2022-09-25T02:03:31;13.70;99.90
39779;DHT22;25454;49.878;8.618;2022-09-25T02:08:42;13.70;99.90
39779;DHT22;25454;49.878;8.618;2022-09-25T02:13:54;13.70;99.90
39779;DHT22;25454;49.878;8.618;2022-09-25T02:18:57;13.60;99.90
39779;DHT22;25454;49.878;8.618;2022-09-25T02:29:41;13.60;99.90
39779;DHT22;25454;49.878;8.618;2022-09-25T02:34:44;13.60;99.90
39779;DHT22;25454;49.878;8.618;2022-09-25T02:39:52;13.50;99.90
39779;DHT22;25454;49.878;8.618;2022-09-25T02:50:26;13.50;99.90
39779;DHT22;25454;49.878;8.618;2022-09-25T03:00:36;13.60;99.90
39779;DHT22;25454;49.878;8.618;2022-09-25T03:05:38;13.60;99.90
39779;DHT22;25454;49.878;8.618;2022-09-25T03:10:39;13.60;99.90
39779;DHT22;25454;49.878;8.618;2022-09-25T03:15:44;13.50;99.90
39779;DHT22;25454;49.878;8.618;2022-09-25T03:20:46;13.60;99.90
39779;DHT22;25454;49.878;8.618;2022-09-25T03:25:46;13.50;99.90
39779;DHT22;25454;49.878;8.618;2022-09-25T03:41:13;13.60;99.90
39779;DHT22;25454;49.878;8.618;2022-09-25T03:46:14;13.60;99.90
39779;DHT22;25454;49.878;8.618;2022-09-25T03:51:14;13.60;99.90
39779;DHT22;25454;49.878;8.618;2022-09-25T03:56:18;13.50;99.90
39779;DHT22;25454;49.878;8.618;2022-09-25T04:01:20;13.50;99.90
39779;DHT22;25454;49.878;8.618;2022-09-25T04:06:25;13.60;99.90
39779;DHT22;25454;49.878;8.618;2022-09-25T04:11:31;13.50;99.90
39779;DHT22;25454;49.878;8.618;2022-09-25T04:16:32;13.50;99.90
39779;DHT22;25454;49.878;8.618;2022-09-25T04:21:32;13.50;99.90
39779;DHT22;25454;49.878;8.618;2022-09-25T04:26:33;13.50;99.90
39779;DHT22;25454;49.878;8.618;2022-09-25T04:31:34;13.40;99.90
39779;DHT22;25454;49.878;8.618;2022-09-25T04:36:34;13.40;99.90
39779;DHT22;25454;49.878;8.618;2022-09-25T04:41:35;13.40;99.90
39779;DHT22;25454;49.878;8.618;2022-09-25T04:46:36;13.40;99.90
39779;DHT22;25454;49.878;8.618;2022-09-25T04:51:37;13.50;99.90
39779;DHT22;25454;49.878;8.618;2022-09-25T04:56:37;13.50;99.90
39779;DHT22;25454;49.878;8.618;2022-09-25T05:01:38;13.50;99.90
39779;DHT22;25454;49.878;8.618;2022-09-25T05:06:38;13.50;99.90
39779;DHT22;25454;49.878;8.618;2022-09-25T05:11:39;13.50;99.90
39779;DHT22;25454;49.878;8.618;2022-09-25T05:16:39;13.50;99.90
39779;DHT22;25454;49.878;8.618;2022-09-25T05:21:41;13.50;99.90
39779;DHT22;25454;49.878;8.618;2022-09-25T05:26:42;13.50;99.90
39779;DHT22;25454;49.878;8.618;2022-09-25T05:31:43;13.50;99.90
39779;DHT22;25454;49.878;8.618;2022-09-25T05:36:46;13.50;99.90
39779;DHT22;25454;49.878;8.618;2022-09-25T05:41:47;13.40;99.90
39779;DHT22;25454;49.878;8.618;2022-09-25T05:46:47;13.40;99.90
39779;DHT22;25454;49.878;8.618;2022-09-25T05:51:48;13.50;99.90
39779;DHT22;25454;49.878;8.618;2022-09-25T05:56:49;13.50;99.90
39779;DHT22;25454;49.878;8.618;2022-09-25T06:01:50;13.50;99.90
39779;DHT22;25454;49.878;8.618;2022-09-25T06:06:50;13.50;99.90
39779;DHT22;25454;49.878;8.618;2022-09-25T06:11:51;13.50;99.90
39779;DHT22;25454;49.878;8.618;2022-09-25T06:16:52;13.50;99.90
39779;DHT22;25454;49.878;8.618;2022-09-25T06:21:54;13.60;99.90
39779;DHT22;25454;49.878;8.618;2022-09-25T06:26:55;13.50;99.90
39779;DHT22;25454;49.878;8.618;2022-09-25T06:31:56;13.50;99.90
39779;DHT22;25454;49.878;8.618;2022-09-25T06:36:59;13.50;99.90
39779;DHT22;25454;49.878;8.618;2022-09-25T06:41:59;13.50;99.90
39779;DHT22;25454;49.878;8.618;2022-09-25T06:47:02;13.50;99.90
39779;DHT22;25454;49.878;8.618;2022-09-25T06:52:03;13.60;99.90
39779;DHT22;25454;49.878;8.618;2022-09-25T06:57:04;13.70;99.90
39779;DHT22;25454;49.878;8.618;2022-09-25T07:02:05;13.80;99.90
39779;DHT22;25454;49.878;8.618;2022-09-25T07:07:24;13.80;99.90
39779;DHT22;25454;49.878;8.618;2022-09-25T07:12:25;13.90;99.90
39779;DHT22;25454;49.878;8.618;2022-09-25T07:17:25;13.90;99.90
39779;DHT22;25454;49.878;8.618;2022-09-25T07:22:26;13.80;99.90
39779;DHT22;25454;49.878;8.618;2022-09-25T07:27:29;13.90;99.90
39779;DHT22;25454;49.878;8.618;2022-09-25T07:32:30;14.00;99.90
39779;DHT22;25454;49.878;8.618;2022-09-25T07:37:31;14.10;99.90
39779;DHT22;25454;49.878;8.618;2022-09-25T07:42:31;14.20;99.90
39779;DHT22;25454;49.878;8.618;2022-09-25T07:47:32;14.30;99.90
39779;DHT22;25454;49.878;8.618;2022-09-25T07:52:33;14.40;99.90
39779;DHT22;25454;49.878;8.618;2022-09-25T07:57:33;14.60;99.90
39779;DHT22;25454;49.878;8.618;2022-09-25T08:02:34;14.60;99.90
39779;DHT22;25454;49.878;8.618;2022-09-25T08:07:35;14.60;99.90
39779;DHT22;25454;49.878;8.618;2022-09-25T08:12:35;14.60;99.90
39779;DHT22;25454;49.878;8.618;2022-09-25T08:17:36;14.60;99.90
39779;DHT22;25454;49.878;8.618;2022-09-25T08:22:37;14.70;99.90
39779;DHT22;25454;49.878;8.618;2022-09-25T08:27:38;14.70;99.90
39779;DHT22;25454;49.878;8.618;2022-09-25T08:32:41;14.90;99.90
39779;DHT22;25454;49.878;8.618;2022-09-25T08:37:42;14.90;99.90
39779;DHT22;25454;49.878;8.618;2022-09-25T08:42:46;15.00;99.90
39779;DHT22;25454;49.878;8.618;2022-09-25T08:47:52;15.00;99.90
39779;DHT22;25454;49.878;8.618;2022-09-25T08:53:22;15.10;99.90
39779;DHT22;25454;49.878;8.618;2022-09-25T08:58:25;15.10;99.90
39779;DHT22;25454;49.878;8.618;2022-09-25T09:03:29;15.10;99.90
39779;DHT22;25454;49.878;8.618;2022-09-25T09:08:35;15.00;99.90
39779;DHT22;25454;49.878;8.618;2022-09-25T09:18:40;15.10;99.90
39779;DHT22;25454;49.878;8.618;2022-09-25T09:23:54;15.10;99.90
39779;DHT22;25454;49.878;8.618;2022-09-25T09:29:23;15.20;99.90
39779;DHT22;25454;49.878;8.618;2022-09-25T09:45:23;15.30;99.90
39779;DHT22;25454;49.878;8.618;2022-09-25T09:55:51;15.70;99.90
39779;DHT22;25454;49.878;8.618;2022-09-25T10:00:56;16.00;99.90
39779;DHT22;25454;49.878;8.618;2022-09-25T10:06:04;16.10;99.90
39779;DHT22;25454;49.878;8.618;2022-09-25T10:11:20;15.90;99.90
39779;DHT22;25454;49.878;8.618;2022-09-25T10:16:22;15.80;99.90
39779;DHT22;25454;49.878;8.618;2022-09-25T10:21:27;15.80;99.90
39779;DHT22;25454;49.878;8.618;2022-09-25T10:26:37;15.90;99.90
39779;DHT22;25454;49.878;8.618;2022-09-25T10:31:38;16.10;99.90
39779;DHT22;25454;49.878;8.618;2022-09-25T10:36:46;16.30;99.90
39779;DHT22;25454;49.878;8.618;2022-09-25T10:41:48;16.50;99.90
39779;DHT22;25454;49.878;8.618;2022-09-25T10:46:49;16.80;99.90
39779;DHT22;25454;49.878;8.618;2022-09-25T10:52:13;17.00;99.90
39779;DHT22;25454;49.878;8.618;2022-09-25T10:57:30;17.00;99.90
39779;DHT22;25454;49.878;8.618;2022-09-25T11:02:39;16.80;99.90
39779;DHT22;25454;49.878;8.618;2022-09-25T11:07:49;16.60;99.90
39779;DHT22;25454;49.878;8.618;2022-09-25T11:12:55;16.40;99.90
39779;DHT22;25454;49.878;8.618;2022-09-25T11:17:57;15.90;99.90
39779;DHT22;25454;49.878;8.618;2022-09-25T11:28:34;15.20;99.90
39779;DHT22;25454;49.878;8.618;2022-09-25T11:33:49;14.90;99.90
39779;DHT22;25454;49.878;8.618;2022-09-25T11:39:01;14.90;99.90
39779;DHT22;25454;49.878;8.618;2022-09-25T11:49:51;15.00;99.90
39779;DHT22;25454;49.878;8.618;2022-09-25T12:22:23;15.80;99.90
39779;DHT22;25454;49.878;8.618;2022-09-25T12:27:38;15.70;99.90
39779;DHT22;25454;49.878;8.618;2022-09-25T12:33:12;15.60;99.90
39779;DHT22;25454;49.878;8.618;2022-09-25T12:43:48;15.70;99.90
39779;DHT22;25454;49.878;8.618;2022-09-25T12:49:26;15.80;99.90
39779;DHT22;25454;49.878;8.618;2022-09-25T12:54:57;15.80;99.90
39779;DHT22;25454;49.878;8.618;2022-09-25T13:00:24;16.00;99.90
39779;DHT22;25454;49.878;8.618;2022-09-25T13:05:49;16.20;99.90
39779;DHT22;25454;49.878;8.618;2022-09-25T13:11:05;16.50;99.90
39779;DHT22;25454;49.878;8.618;2022-09-25T13:16:10;16.70;99.90
39779;DHT22;25454;49.878;8.618;2022-09-25T13:21:24;16.70;99.90
39779;DHT22;25454;49.878;8.618;2022-09-25T13:26:28;16.60;99.90
39779;DHT22;25454;49.878;8.618;2022-09-25T13:31:31;16.50;99.90
39779;DHT22;25454;49.878;8.618;2022-09-25T13:42:02;16.00;99.90
39779;DHT22;25454;49.878;8.618;2022-09-25T14:02:58;15.60;99.90
39779;DHT22;25454;49.878;8.618;2022-09-25T14:08:10;15.50;99.90
39779;DHT22;25454;49.878;8.618;2022-09-25T14:13:12;15.70;99.90
39779;DHT22;25454;49.878;8.618;2022-09-25T14:18:25;15.90;99.90
39779;DHT22;25454;49.878;8.618;2022-09-25T14:23:29;15.90;99.90
39779;DHT22;25454;49.878;8.618;2022-09-25T14:28:41;15.90;99.90
39779;DHT22;25454;49.878;8.618;2022-09-25T14:39:28;15.60;99.90
39779;DHT22;25454;49.878;8.618;2022-09-25T14:55:17;15.30;99.90
39779;DHT22;25454;49.878;8.618;2022-09-25T15:00:20;15.30;99.90
39779;DHT22;25454;49.878;8.618;2022-09-25T15:05:29;15.20;99.90
39779;DHT22;25454;49.878;8.618;2022-09-25T15:10:37;15.20;99.90
39779;DHT22;25454;49.878;8.618;2022-09-25T15:15:38;15.30;99.90
39779;DHT22;25454;49.878;8.618;2022-09-25T15:20:45;15.30;99.90
39779;DHT22;25454;49.878;8.618;2022-09-25T15:25:54;15.40;99.90
39779;DHT22;25454;49.878;8.618;2022-09-25T15:30:57;15.40;99.90
39779;DHT22;25454;49.878;8.618;2022-09-25T15:36:01;15.40;99.90
39779;DHT22;25454;49.878;8.618;2022-09-25T15:41:06;15.30;99.90
39779;DHT22;25454;49.878;8.618;2022-09-25T15:51:20;15.20;99.90
39779;DHT22;25454;49.878;8.618;2022-09-25T15:56:23;15.10;99.90
39779;DHT22;25454;49.878;8.618;2022-09-25T16:01:27;15.10;99.90
39779;DHT22;25454;49.878;8.618;2022-09-25T16:06:47;15.00;99.90
39779;DHT22;25454;49.878;8.618;2022-09-25T16:11:49;14.80;99.90
39779;DHT22;25454;49.878;8.618;2022-09-25T16:16:49;14.80;99.90
39779;DHT22;25454;49.878;8.618;2022-09-25T16:21:51;14.80;99.90
39779;DHT22;25454;49.878;8.618;2022-09-25T16:26:57;14.80;99.90
39779;DHT22;25454;49.878;8.618;2022-09-25T16:32:16;14.70;99.90
39779;DHT22;25454;49.878;8.618;2022-09-25T16:37:20;14.50;99.90
39779;DHT22;25454;49.878;8.618;2022-09-25T16:47:28;14.30;99.90
39779;DHT22;25454;49.878;8.618;2022-09-25T16:52:29;14.20;99.90
39779;DHT22;25454;49.878;8.618;2022-09-25T16:57:31;14.10;99.90
39779;DHT22;25454;49.878;8.618;2022-09-25T17:02:37;14.00;99.90
39779;DHT22;25454;49.878;8.618;2022-09-25T17:07:40;14.00;99.90
39779;DHT22;25454;49.878;8.618;2022-09-25T17:12:43;14.00;99.90
39779;DHT22;25454;49.878;8.618;2022-09-25T17:17:47;13.90;99.90
39779;DHT22;25454;49.878;8.618;2022-09-25T17:22:53;13.90;99.90
39779;DHT22;25454;49.878;8.618;2022-09-25T17:27:53;13.80;99.90
39779;DHT22;25454;49.878;8.618;2022-09-25T17:32:54;13.80;99.90
39779;DHT22;25454;49.878;8.618;2022-09-25T17:37:54;13.70;99.90
39779;DHT22;25454;49.878;8.618;2022-09-25T17:42:58;13.70;99.90
39779;DHT22;25454;49.878;8.618;2022-09-25T17:48:00;13.60;99.90
39779;DHT22;25454;49.878;8.618;2022-09-25T17:53:01;13.60;99.90
39779;DHT22;25454;49.878;8.618;2022-09-25T17:58:06;13.60;99.90
39779;DHT22;25454;49.878;8.618;2022-09-25T18:03:06;13.60;99.90
39779;DHT22;25454;49.878;8.618;2022-09-25T18:08:08;13.50;99.90
39779;DHT22;25454;49.878;8.618;2022-09-25T18:13:16;13.50;99.90
39779;DHT22;25454;49.878;8.618;2022-09-25T18:18:20;13.40;99.90
39779;DHT22;25454;49.878;8.618;2022-09-25T18:23:20;13.40;99.90
39779;DHT22;25454;49.878;8.618;2022-09-25T18:28:21;13.40;99.90
39779;DHT22;25454;49.878;8.618;2022-09-25T18:33:22;13.40;99.90
39779;DHT22;25454;49.878;8.618;2022-09-25T18:38:24;13.40;99.90
39779;DHT22;25454;49.878;8.618;2022-09-25T18:43:24;13.40;99.90
39779;DHT22;25454;49.878;8.618;2022-09-25T18:48:28;13.30;99.90
39779;DHT22;25454;49.878;8.618;2022-09-25T18:53:29;13.30;99.90
39779;DHT22;25454;49.878;8.618;2022-09-25T18:58:29;13.30;99.90
39779;DHT22;25454;49.878;8.618;2022-09-25T19:03:30;13.30;99.90
39779;DHT22;25454;49.878;8.618;2022-09-25T19:08:32;13.30;99.90
39779;DHT22;25454;49.878;8.618;2022-09-25T19:13:33;13.20;99.90
39779;DHT22;25454;49.878;8.618;2022-09-25T19:18:35;13.20;99.90
39779;DHT22;25454;49.878;8.618;2022-09-25T19:23:36;13.20;99.90
39779;DHT22;25454;49.878;8.618;2022-09-25T19:28:37;13.20;99.90
39779;DHT22;25454;49.878;8.618;2022-09-25T19:33:38;13.10;99.90
39779;DHT22;25454;49.878;8.618;2022-09-25T19:38:38;13.10;99.90
39779;DHT22;25454;49.878;8.618;2022-09-25T19:43:39;13.10;99.90
39779;DHT22;25454;49.878;8.618;2022-09-25T19:48:40;13.00;99.90
39779;DHT22;25454;49.878;8.618;2022-09-25T19:53:42;13.00;99.90
39779;DHT22;25454;49.878;8.618;2022-09-25T19:58:46;12.90;99.90
39779;DHT22;25454;49.878;8.618;2022-09-25T20:03:50;12.80;99.90
39779;DHT22;25454;49.878;8.618;2022-09-25T20:08:58;12.80;99.90
39779;DHT22;25454;49.878;8.618;2022-09-25T20:14:04;12.80;99.90
39779;DHT22;25454;49.878;8.618;2022-09-25T20:19:09;12.80;99.90
39779;DHT22;25454;49.878;8.618;2022-09-25T20:24:09;12.70;99.90
39779;DHT22;25454;49.878;8.618;2022-09-25T20:29:13;12.60;99.90
39779;DHT22;25454;49.878;8.618;2022-09-25T20:34:16;12.60;99.90
39779;DHT22;25454;49.878;8.618;2022-09-25T20:39:17;12.50;99.90
39779;DHT22;25454;49.878;8.618;2022-09-25T20:44:18;12.30;99.90
39779;DHT22;25454;49.878;8.618;2022-09-25T20:49:19;12.20;99.90
39779;DHT22;25454;49.878;8.618;2022-09-25T20:54:22;12.10;99.90
39779;DHT22;25454;49.878;8.618;2022-09-25T20:59:24;11.90;99.90
39779;DHT22;25454;49.878;8.618;2022-09-25T21:04:25;11.90;99.90
39779;DHT22;25454;49.878;8.618;2022-09-25T21:09:26;11.80;99.90
39779;DHT22;25454;49.878;8.618;2022-09-25T21:14:27;11.70;99.90
39779;DHT22;25454;49.878;8.618;2022-09-25T21:19:28;11.60;99.90
39779;DHT22;25454;49.878;8.618;2022-09-25T21:24:28;11.50;99.90
39779;DHT22;25454;49.878;8.618;2022-09-25T21:29:29;11.50;99.90
39779;DHT22;25454;49.878;8.618;2022-09-25T21:34:31;11.40;99.90
39779;DHT22;25454;49.878;8.618;2022-09-25T21:39:31;11.30;99.90
39779;DHT22;25454;49.878;8.618;2022-09-25T21:44:32;11.20;99.90
39779;DHT22;25454;49.878;8.618;2022-09-25T21:49:32;11.20;99.90
39779;DHT22;25454;49.878;8.618;2022-09-25T21:54:33;11.10;99.90
39779;DHT22;25454;49.878;8.618;2022-09-25T21:59:34;11.10;99.90
39779;DHT22;25454;49.878;8.618;2022-09-25T22:04:34;11.00;99.90
39779;DHT22;25454;49.878;8.618;2022-09-25T22:09:35;10.90;99.90
39779;DHT22;25454;49.878;8.618;2022-09-25T22:14:36;10.90;99.90
39779;DHT22;25454;49.878;8.618;2022-09-25T22:19:36;10.80;99.90
39779;DHT22;25454;49.878;8.618;2022-09-25T22:24:37;10.80;99.90
39779;DHT22;25454;49.878;8.618;2022-09-25T22:29:37;10.80;99.90
39779;DHT22;25454;49.878;8.618;2022-09-25T22:34:38;10.70;99.90
39779;DHT22;25454;49.878;8.618;2022-09-25T22:39:40;10.60;99.90
39779;DHT22;25454;49.878;8.618;2022-09-25T22:44:41;10.60;99.90
39779;DHT22;25454;49.878;8.618;2022-09-25T22:49:44;10.60;99.90
39779;DHT22;25454;49.878;8.618;2022-09-25T22:54:45;10.50;99.90
39779;DHT22;25454;49.878;8.618;2022-09-25T22:59:45;10.50;99.90
39779;DHT22;25454;49.878;8.618;2022-09-25T23:04:47;10.50;99.90
39779;DHT22;25454;49.878;8.618;2022-09-25T23:09:51;10.50;99.90
39779;DHT22;25454;49.878;8.618;2022-09-25T23:14:51;10.40;99.90
39779;DHT22;25454;49.878;8.618;2022-09-25T23:19:53;10.30;99.90
39779;DHT22;25454;49.878;8.618;2022-09-25T23:24:57;10.30;99.90
39779;DHT22;25454;49.878;8.618;2022-09-25T23:29:57;10.20;99.90
39779;DHT22;25454;49.878;8.618;2022-09-25T23:34:58;10.20;99.90
39779;DHT22;25454;49.878;8.618;2022-09-25T23:39:58;10.10;99.90
39779;DHT22;25454;49.878;8.618;2022-09-25T23:44:59;10.00;99.90
39779;DHT22;25454;49.878;8.618;2022-09-25T23:49:59;10.00;99.90
39779;DHT22;25454;49.878;8.618;2022-09-25T23:55:00;9.90;99.90
